sensor_id;sensor_type;location;lat;lon;timestamp;temperature;humidity
21563;DHT22;10942;47.894;11.424;2022-10-31T00:01:31;10.00;99.90
21563;DHT22;10942;47.894;11.424;2022-10-31T00:03:57;10.10;99.90
21563;DHT22;10942;47.894;11.424;2022-10-31T00:06:23;10.00;99.90
21563;DHT22;10942;47.894;11.424;2022-10-31T00:08:57;10.00;99.90
21563;DHT22;10942;47.894;11.424;2022-10-31T00:11:24;10.00;99.90
21563;DHT22;10942;47.894;11.424;2022-10-31T00:13:49;10.00;99.90
21563;DHT22;10942;47.894;11.424;2022-10-31T00:16:23;10.00;99.90
21563;DHT22;10942;47.894;11.424;2022-10-31T00:18:51;10.00;99.90
21563;DHT22;10942;47.894;11.424;2022-10-31T00:21:17;9.90;99.90
21563;DHT22;10942;47.894;11.424;2022-10-31T00:23:43;9.90;99.90
21563;DHT22;10942;47.894;11.424;2022-10-31T00:26:08;9.90;99.90
21563;DHT22;10942;47.894;11.424;2022-10-31T00:28:34;9.90;99.90
21563;DHT22;10942;47.894;11.424;2022-10-31T00:31:06;9.90;99.90
21563;DHT22;10942;47.894;11.424;2022-10-31T00:33:36;9.90;99.90
21563;DHT22;10942;47.894;11.424;2022-10-31T00:36:04;9.80;99.90
21563;DHT22;10942;47.894;11.424;2022-10-31T00:38:30;9.80;99.90
21563;DHT22;10942;47.894;11.424;2022-10-31T00:40:56;9.80;99.90
21563;DHT22;10942;47.894;11.424;2022-10-31T00:43:22;9.70;99.90
21563;DHT22;10942;47.894;11.424;2022-10-31T00:45:47;9.70;99.90
21563;DHT22;10942;47.894;11.424;2022-10-31T00:48:13;9.70;99.90
21563;DHT22;10942;47.894;11.424;2022-10-31T00:50:39;9.70;99.90
21563;DHT22;10942;47.894;11.424;2022-10-31T00:53:04;9.70;99.90
21563;DHT22;10942;47.894;11.424;2022-10-31T00:55:30;9.70;99.90
21563;DHT22;10942;47.894;11.424;2022-10-31T00:57:56;9.70;99.90
21563;DHT22;10942;47.894;11.424;2022-10-31T01:00:22;9.70;99.90
21563;DHT22;10942;47.894;11.424;2022-10-31T01:02:47;9.60;99.90
21563;DHT22;10942;47.894;11.424;2022-10-31T01:05:13;9.60;99.90
21563;DHT22;10942;47.894;11.424;2022-10-31T01:07:40;9.50;99.90
21563;DHT22;10942;47.894;11.424;2022-10-31T01:10:09;9.50;99.90
21563;DHT22;10942;47.894;11.424;2022-10-31T01:12:43;9.50;99.90
21563;DHT22;10942;47.894;11.424;2022-10-31T01:20:03;9.40;99.90
21563;DHT22;10942;47.894;11.424;2022-10-31T01:22:30;9.40;99.90
21563;DHT22;10942;47.894;11.424;2022-10-31T01:24:59;9.40;99.90
21563;DHT22;10942;47.894;11.424;2022-10-31T01:27:25;9.30;99.90
21563;DHT22;10942;47.894;11.424;2022-10-31T01:32:17;9.20;99.90
21563;DHT22;10942;47.894;11.424;2022-10-31T01:34:44;9.20;99.90
21563;DHT22;10942;47.894;11.424;2022-10-31T01:37:11;9.20;99.90
21563;DHT22;10942;47.894;11.424;2022-10-31T01:39:37;9.20;99.90
21563;DHT22;10942;47.894;11.424;2022-10-31T01:42:03;9.20;99.90
21563;DHT22;10942;47.894;11.424;2022-10-31T01:46:58;9.10;99.90
21563;DHT22;10942;47.894;11.424;2022-10-31T01:49:38;9.10;99.90
21563;DHT22;10942;47.894;11.424;2022-10-31T01:52:22;9.00;99.90
21563;DHT22;10942;47.894;11.424;2022-10-31T01:54:56;9.00;99.90
21563;DHT22;10942;47.894;11.424;2022-10-31T01:57:24;9.00;99.90
21563;DHT22;10942;47.894;11.424;2022-10-31T01:59:55;8.90;99.90
21563;DHT22;10942;47.894;11.424;2022-10-31T02:53:25;8.90;99.90
21563;DHT22;10942;47.894;11.424;2022-10-31T02:55:58;8.80;99.90
21563;DHT22;10942;47.894;11.424;2022-10-31T02:58:27;8.70;99.90
21563;DHT22;10942;47.894;11.424;2022-10-31T03:01:07;8.60;99.90
21563;DHT22;10942;47.894;11.424;2022-10-31T03:06:41;8.60;99.90
21563;DHT22;10942;47.894;11.424;2022-10-31T03:09:38;8.60;99.90
21563;DHT22;10942;47.894;11.424;2022-10-31T03:17:34;8.40;99.90
21563;DHT22;10942;47.894;11.424;2022-10-31T03:20:03;8.30;99.90
21563;DHT22;10942;47.894;11.424;2022-10-31T03:22:31;8.40;99.90
21563;DHT22;10942;47.894;11.424;2022-10-31T03:27:28;8.30;99.90
21563;DHT22;10942;47.894;11.424;2022-10-31T03:30:00;8.10;99.90
21563;DHT22;10942;47.894;11.424;2022-10-31T03:32:48;8.10;99.90
21563;DHT22;10942;47.894;11.424;2022-10-31T03:35:18;8.10;99.90
21563;DHT22;10942;47.894;11.424;2022-10-31T03:37:46;8.10;99.90
21563;DHT22;10942;47.894;11.424;2022-10-31T03:40:15;8.10;99.90
21563;DHT22;10942;47.894;11.424;2022-10-31T03:42:44;8.20;99.90
21563;DHT22;10942;47.894;11.424;2022-10-31T03:45:20;8.20;99.90
21563;DHT22;10942;47.894;11.424;2022-10-31T03:47:47;8.10;99.90
21563;DHT22;10942;47.894;11.424;2022-10-31T03:50:15;8.10;99.90
21563;DHT22;10942;47.894;11.424;2022-10-31T03:52:49;8.00;99.90
21563;DHT22;10942;47.894;11.424;2022-10-31T03:55:31;8.00;99.90
21563;DHT22;10942;47.894;11.424;2022-10-31T03:58:06;8.00;99.90
21563;DHT22;10942;47.894;11.424;2022-10-31T04:00:35;8.00;99.90
21563;DHT22;10942;47.894;11.424;2022-10-31T04:03:09;8.00;99.90
21563;DHT22;10942;47.894;11.424;2022-10-31T04:05:38;8.00;99.90
21563;DHT22;10942;47.894;11.424;2022-10-31T04:08:08;8.00;99.90
21563;DHT22;10942;47.894;11.424;2022-10-31T04:10:37;7.90;99.90
21563;DHT22;10942;47.894;11.424;2022-10-31T04:13:08;7.90;99.90
21563;DHT22;10942;47.894;11.424;2022-10-31T04:15:48;7.90;99.90
21563;DHT22;10942;47.894;11.424;2022-10-31T04:18:16;7.90;99.90
21563;DHT22;10942;47.894;11.424;2022-10-31T04:20:42;7.90;99.90
21563;DHT22;10942;47.894;11.424;2022-10-31T04:25:42;7.80;99.90
21563;DHT22;10942;47.894;11.424;2022-10-31T04:28:08;7.80;99.90
21563;DHT22;10942;47.894;11.424;2022-10-31T04:30:34;7.80;99.90
21563;DHT22;10942;47.894;11.424;2022-10-31T04:32:59;7.80;99.90
21563;DHT22;10942;47.894;11.424;2022-10-31T04:35:26;7.70;99.90
21563;DHT22;10942;47.894;11.424;2022-10-31T04:37:53;7.70;99.90
21563;DHT22;10942;47.894;11.424;2022-10-31T04:40:19;7.70;99.90
21563;DHT22;10942;47.894;11.424;2022-10-31T04:42:54;7.70;99.90
21563;DHT22;10942;47.894;11.424;2022-10-31T04:45:20;7.60;99.90
21563;DHT22;10942;47.894;11.424;2022-10-31T04:47:48;7.60;99.90
21563;DHT22;10942;47.894;11.424;2022-10-31T04:50:14;7.60;99.90
21563;DHT22;10942;47.894;11.424;2022-10-31T04:52:44;7.60;99.90
21563;DHT22;10942;47.894;11.424;2022-10-31T04:55:12;7.60;99.90
21563;DHT22;10942;47.894;11.424;2022-10-31T04:58:01;7.60;99.90
21563;DHT22;10942;47.894;11.424;2022-10-31T05:00:27;7.60;99.90
21563;DHT22;10942;47.894;11.424;2022-10-31T05:02:56;7.60;99.90
21563;DHT22;10942;47.894;11.424;2022-10-31T05:05:27;7.60;99.90
21563;DHT22;10942;47.894;11.424;2022-10-31T05:07:54;7.50;99.90
21563;DHT22;10942;47.894;11.424;2022-10-31T05:12:53;7.50;99.90
21563;DHT22;10942;47.894;11.424;2022-10-31T05:15:42;7.50;99.90
21563;DHT22;10942;47.894;11.424;2022-10-31T05:18:40;7.60;99.90
21563;DHT22;10942;47.894;11.424;2022-10-31T05:21:28;7.40;99.90
21563;DHT22;10942;47.894;11.424;2022-10-31T05:23:58;7.40;99.90
21563;DHT22;10942;47.894;11.424;2022-10-31T05:26:24;7.40;99.90
21563;DHT22;10942;47.894;11.424;2022-10-31T05:28:54;7.30;99.90
21563;DHT22;10942;47.894;11.424;2022-10-31T05:31:19;7.30;99.90
21563;DHT22;10942;47.894;11.424;2022-10-31T05:33:47;7.30;99.90
21563;DHT22;10942;47.894;11.424;2022-10-31T05:36:33;7.30;99.90
21563;DHT22;10942;47.894;11.424;2022-10-31T05:39:02;7.20;99.90
21563;DHT22;10942;47.894;11.424;2022-10-31T05:41:35;7.30;99.90
21563;DHT22;10942;47.894;11.424;2022-10-31T05:44:17;7.30;99.90
21563;DHT22;10942;47.894;11.424;2022-10-31T05:47:12;7.20;99.90
21563;DHT22;10942;47.894;11.424;2022-10-31T05:49:56;7.20;99.90
21563;DHT22;10942;47.894;11.424;2022-10-31T05:52:23;7.10;99.90
21563;DHT22;10942;47.894;11.424;2022-10-31T05:54:56;7.20;99.90
21563;DHT22;10942;47.894;11.424;2022-10-31T05:57:22;7.10;99.90
21563;DHT22;10942;47.894;11.424;2022-10-31T05:59:48;7.10;99.90
21563;DHT22;10942;47.894;11.424;2022-10-31T06:02:13;7.10;99.90
21563;DHT22;10942;47.894;11.424;2022-10-31T06:04:57;7.10;99.90
21563;DHT22;10942;47.894;11.424;2022-10-31T06:07:25;7.10;99.90
21563;DHT22;10942;47.894;11.424;2022-10-31T06:09:52;7.10;99.90
21563;DHT22;10942;47.894;11.424;2022-10-31T06:12:20;7.10;99.90
21563;DHT22;10942;47.894;11.424;2022-10-31T06:15:11;7.10;99.90
21563;DHT22;10942;47.894;11.424;2022-10-31T06:17:37;7.10;99.90
21563;DHT22;10942;47.894;11.424;2022-10-31T06:20:18;7.10;99.90
21563;DHT22;10942;47.894;11.424;2022-10-31T06:22:54;7.20;99.90
21563;DHT22;10942;47.894;11.424;2022-10-31T06:25:19;7.20;99.90
21563;DHT22;10942;47.894;11.424;2022-10-31T06:27:48;7.20;99.90
21563;DHT22;10942;47.894;11.424;2022-10-31T06:30:14;7.30;99.90
21563;DHT22;10942;47.894;11.424;2022-10-31T06:32:40;7.40;99.90
21563;DHT22;10942;47.894;11.424;2022-10-31T06:35:08;7.40;99.90
21563;DHT22;10942;47.894;11.424;2022-10-31T06:37:34;7.60;99.90
21563;DHT22;10942;47.894;11.424;2022-10-31T06:40:11;7.70;99.90
21563;DHT22;10942;47.894;11.424;2022-10-31T06:42:58;7.90;99.90
21563;DHT22;10942;47.894;11.424;2022-10-31T06:45:24;8.10;99.90
21563;DHT22;10942;47.894;11.424;2022-10-31T06:48:08;8.20;99.90
21563;DHT22;10942;47.894;11.424;2022-10-31T06:50:39;8.40;99.90
21563;DHT22;10942;47.894;11.424;2022-10-31T06:53:05;8.70;99.90
21563;DHT22;10942;47.894;11.424;2022-10-31T06:55:30;8.90;99.90
21563;DHT22;10942;47.894;11.424;2022-10-31T06:57:59;9.10;99.90
21563;DHT22;10942;47.894;11.424;2022-10-31T07:00:28;9.10;99.90
21563;DHT22;10942;47.894;11.424;2022-10-31T07:03:05;9.30;99.90
21563;DHT22;10942;47.894;11.424;2022-10-31T07:05:33;9.30;99.90
21563;DHT22;10942;47.894;11.424;2022-10-31T07:08:01;9.30;99.90
21563;DHT22;10942;47.894;11.424;2022-10-31T07:10:29;9.50;99.90
21563;DHT22;10942;47.894;11.424;2022-10-31T07:13:00;9.50;99.90
21563;DHT22;10942;47.894;11.424;2022-10-31T07:15:29;9.60;99.90
21563;DHT22;10942;47.894;11.424;2022-10-31T07:18:00;9.80;99.90
21563;DHT22;10942;47.894;11.424;2022-10-31T07:20:27;10.10;99.90
21563;DHT22;10942;47.894;11.424;2022-10-31T07:22:53;10.20;99.90
21563;DHT22;10942;47.894;11.424;2022-10-31T07:25:19;10.30;99.90
21563;DHT22;10942;47.894;11.424;2022-10-31T07:28:06;10.40;99.90
21563;DHT22;10942;47.894;11.424;2022-10-31T07:30:32;10.50;99.90
21563;DHT22;10942;47.894;11.424;2022-10-31T07:32:58;10.60;99.90
21563;DHT22;10942;47.894;11.424;2022-10-31T07:35:36;10.80;99.90
21563;DHT22;10942;47.894;11.424;2022-10-31T07:38:10;11.00;99.90
21563;DHT22;10942;47.894;11.424;2022-10-31T07:40:36;11.20;99.90
21563;DHT22;10942;47.894;11.424;2022-10-31T07:43:02;11.30;99.90
21563;DHT22;10942;47.894;11.424;2022-10-31T07:45:51;11.50;99.90
21563;DHT22;10942;47.894;11.424;2022-10-31T07:48:35;11.80;99.90
21563;DHT22;10942;47.894;11.424;2022-10-31T07:51:20;12.00;99.90
21563;DHT22;10942;47.894;11.424;2022-10-31T07:54:04;12.20;99.90
21563;DHT22;10942;47.894;11.424;2022-10-31T07:56:31;12.10;99.90
21563;DHT22;10942;47.894;11.424;2022-10-31T07:58:57;12.20;99.90
21563;DHT22;10942;47.894;11.424;2022-10-31T08:01:22;12.30;99.90
21563;DHT22;10942;47.894;11.424;2022-10-31T08:04:08;12.30;99.90
21563;DHT22;10942;47.894;11.424;2022-10-31T08:06:52;12.50;99.90
21563;DHT22;10942;47.894;11.424;2022-10-31T08:09:26;12.70;99.90
21563;DHT22;10942;47.894;11.424;2022-10-31T08:11:53;13.00;99.90
21563;DHT22;10942;47.894;11.424;2022-10-31T08:14:19;13.10;99.90
21563;DHT22;10942;47.894;11.424;2022-10-31T08:16:45;13.30;99.90
21563;DHT22;10942;47.894;11.424;2022-10-31T08:19:12;13.40;99.90
21563;DHT22;10942;47.894;11.424;2022-10-31T08:21:39;13.50;99.90
21563;DHT22;10942;47.894;11.424;2022-10-31T08:24:07;13.60;99.90
21563;DHT22;10942;47.894;11.424;2022-10-31T08:26:33;13.80;99.90
21563;DHT22;10942;47.894;11.424;2022-10-31T08:28:59;14.00;99.90
21563;DHT22;10942;47.894;11.424;2022-10-31T08:31:28;14.20;99.90
21563;DHT22;10942;47.894;11.424;2022-10-31T08:34:12;14.40;99.90
21563;DHT22;10942;47.894;11.424;2022-10-31T08:37:15;14.60;99.90
21563;DHT22;10942;47.894;11.424;2022-10-31T08:39:46;14.50;99.90
21563;DHT22;10942;47.894;11.424;2022-10-31T08:42:12;14.60;99.90
21563;DHT22;10942;47.894;11.424;2022-10-31T08:44:38;14.80;99.90
21563;DHT22;10942;47.894;11.424;2022-10-31T08:47:04;15.00;99.90
21563;DHT22;10942;47.894;11.424;2022-10-31T08:49:32;15.00;99.90
21563;DHT22;10942;47.894;11.424;2022-10-31T08:51:58;15.00;99.90
21563;DHT22;10942;47.894;11.424;2022-10-31T08:54:29;14.80;99.90
21563;DHT22;10942;47.894;11.424;2022-10-31T08:56:55;14.90;99.90
21563;DHT22;10942;47.894;11.424;2022-10-31T08:59:41;14.90;99.90
21563;DHT22;10942;47.894;11.424;2022-10-31T09:02:25;14.80;99.90
21563;DHT22;10942;47.894;11.424;2022-10-31T09:04:56;15.00;99.90
21563;DHT22;10942;47.894;11.424;2022-10-31T09:07:22;15.10;99.90
21563;DHT22;10942;47.894;11.424;2022-10-31T09:09:48;15.30;99.90
21563;DHT22;10942;47.894;11.424;2022-10-31T09:12:13;15.30;99.90
21563;DHT22;10942;47.894;11.424;2022-10-31T09:14:57;15.50;99.90
21563;DHT22;10942;47.894;11.424;2022-10-31T09:17:29;15.80;99.90
21563;DHT22;10942;47.894;11.424;2022-10-31T09:20:13;16.20;99.90
21563;DHT22;10942;47.894;11.424;2022-10-31T09:22:39;16.50;99.90
21563;DHT22;10942;47.894;11.424;2022-10-31T09:25:04;16.80;99.90
21563;DHT22;10942;47.894;11.424;2022-10-31T09:27:30;17.20;99.90
21563;DHT22;10942;47.894;11.424;2022-10-31T09:29:58;17.60;99.90
21563;DHT22;10942;47.894;11.424;2022-10-31T09:32:25;17.70;99.90
21563;DHT22;10942;47.894;11.424;2022-10-31T09:34:51;17.90;99.90
21563;DHT22;10942;47.894;11.424;2022-10-31T09:37:19;18.00;99.90
21563;DHT22;10942;47.894;11.424;2022-10-31T09:39:45;18.30;99.90
21563;DHT22;10942;47.894;11.424;2022-10-31T09:50:34;19.20;99.90
21563;DHT22;10942;47.894;11.424;2022-10-31T09:53:34;19.10;99.90
21563;DHT22;10942;47.894;11.424;2022-10-31T09:56:04;19.30;99.90
21563;DHT22;10942;47.894;11.424;2022-10-31T09:58:34;19.20;99.90
21563;DHT22;10942;47.894;11.424;2022-10-31T10:01:03;19.00;99.90
21563;DHT22;10942;47.894;11.424;2022-10-31T10:03:34;18.90;99.90
21563;DHT22;10942;47.894;11.424;2022-10-31T10:09:04;19.20;99.90
21563;DHT22;10942;47.894;11.424;2022-10-31T10:17:44;20.00;99.90
21563;DHT22;10942;47.894;11.424;2022-10-31T10:23:51;19.60;99.90
21563;DHT22;10942;47.894;11.424;2022-10-31T10:26:24;19.70;99.90
21563;DHT22;10942;47.894;11.424;2022-10-31T10:29:02;20.00;99.90
21563;DHT22;10942;47.894;11.424;2022-10-31T10:31:33;20.10;99.90
21563;DHT22;10942;47.894;11.424;2022-10-31T10:36:44;19.90;99.90
21563;DHT22;10942;47.894;11.424;2022-10-31T10:39:22;19.80;99.90
21563;DHT22;10942;47.894;11.424;2022-10-31T10:41:50;19.70;99.90
21563;DHT22;10942;47.894;11.424;2022-10-31T10:44:40;19.60;99.90
21563;DHT22;10942;47.894;11.424;2022-10-31T10:47:33;19.20;99.90
21563;DHT22;10942;47.894;11.424;2022-10-31T10:50:20;19.10;99.90
21563;DHT22;10942;47.894;11.424;2022-10-31T10:55:47;18.90;99.90
21563;DHT22;10942;47.894;11.424;2022-10-31T10:58:15;18.90;99.90
21563;DHT22;10942;47.894;11.424;2022-10-31T11:00:45;18.90;99.90
21563;DHT22;10942;47.894;11.424;2022-10-31T11:03:13;19.00;99.90
21563;DHT22;10942;47.894;11.424;2022-10-31T11:05:52;18.90;99.90
21563;DHT22;10942;47.894;11.424;2022-10-31T11:08:32;18.90;99.90
21563;DHT22;10942;47.894;11.424;2022-10-31T11:11:09;18.90;99.90
21563;DHT22;10942;47.894;11.424;2022-10-31T11:13:36;18.80;99.90
21563;DHT22;10942;47.894;11.424;2022-10-31T11:16:15;18.80;99.90
21563;DHT22;10942;47.894;11.424;2022-10-31T11:18:52;18.80;99.90
21563;DHT22;10942;47.894;11.424;2022-10-31T11:21:28;18.70;99.90
21563;DHT22;10942;47.894;11.424;2022-10-31T11:26:36;18.80;99.90
21563;DHT22;10942;47.894;11.424;2022-10-31T11:29:04;18.90;99.90
21563;DHT22;10942;47.894;11.424;2022-10-31T11:31:32;18.90;99.90
21563;DHT22;10942;47.894;11.424;2022-10-31T11:34:03;18.90;99.90
21563;DHT22;10942;47.894;11.424;2022-10-31T11:36:32;19.00;99.90
21563;DHT22;10942;47.894;11.424;2022-10-31T11:39:00;19.10;99.90
21563;DHT22;10942;47.894;11.424;2022-10-31T11:41:29;19.10;99.90
21563;DHT22;10942;47.894;11.424;2022-10-31T11:44:02;19.10;99.90
21563;DHT22;10942;47.894;11.424;2022-10-31T11:46:35;19.10;99.90
21563;DHT22;10942;47.894;11.424;2022-10-31T11:49:01;19.10;99.90
21563;DHT22;10942;47.894;11.424;2022-10-31T11:51:32;19.10;99.90
21563;DHT22;10942;47.894;11.424;2022-10-31T11:53:59;19.10;99.90
21563;DHT22;10942;47.894;11.424;2022-10-31T11:56:37;19.20;99.90
21563;DHT22;10942;47.894;11.424;2022-10-31T11:59:05;19.10;99.90
21563;DHT22;10942;47.894;11.424;2022-10-31T12:01:32;19.20;99.90
21563;DHT22;10942;47.894;11.424;2022-10-31T12:04:08;19.10;99.90
21563;DHT22;10942;47.894;11.424;2022-10-31T12:06:36;19.10;99.90
21563;DHT22;10942;47.894;11.424;2022-10-31T12:09:19;19.20;99.90
21563;DHT22;10942;47.894;11.424;2022-10-31T12:15:12;19.10;99.90
21563;DHT22;10942;47.894;11.424;2022-10-31T12:23:44;19.10;99.90
21563;DHT22;10942;47.894;11.424;2022-10-31T12:36:52;19.10;99.90
21563;DHT22;10942;47.894;11.424;2022-10-31T12:39:23;19.10;99.90
21563;DHT22;10942;47.894;11.424;2022-10-31T12:41:56;19.20;99.90
21563;DHT22;10942;47.894;11.424;2022-10-31T12:52:56;19.20;99.90
21563;DHT22;10942;47.894;11.424;2022-10-31T12:56:04;19.30;99.90
21563;DHT22;10942;47.894;11.424;2022-10-31T12:58:35;19.20;99.90
21563;DHT22;10942;47.894;11.424;2022-10-31T13:01:18;19.20;99.90
21563;DHT22;10942;47.894;11.424;2022-10-31T13:03:51;19.30;99.90
21563;DHT22;10942;47.894;11.424;2022-10-31T13:06:22;19.30;99.90
21563;DHT22;10942;47.894;11.424;2022-10-31T13:08:53;19.30;99.90
21563;DHT22;10942;47.894;11.424;2022-10-31T13:11:30;19.30;99.90
21563;DHT22;10942;47.894;11.424;2022-10-31T13:14:21;19.20;99.90
21563;DHT22;10942;47.894;11.424;2022-10-31T13:16:48;19.20;99.90
21563;DHT22;10942;47.894;11.424;2022-10-31T13:19:22;19.10;99.90
21563;DHT22;10942;47.894;11.424;2022-10-31T13:22:10;19.20;99.90
21563;DHT22;10942;47.894;11.424;2022-10-31T13:30:06;19.00;99.90
21563;DHT22;10942;47.894;11.424;2022-10-31T13:32:52;19.00;99.90
21563;DHT22;10942;47.894;11.424;2022-10-31T13:35:32;19.00;99.90
21563;DHT22;10942;47.894;11.424;2022-10-31T13:38:24;19.00;99.90
21563;DHT22;10942;47.894;11.424;2022-10-31T13:43:53;18.90;99.90
21563;DHT22;10942;47.894;11.424;2022-10-31T13:48:58;18.60;99.90
21563;DHT22;10942;47.894;11.424;2022-10-31T13:51:26;18.60;99.90
21563;DHT22;10942;47.894;11.424;2022-10-31T13:56:31;18.50;99.90
21563;DHT22;10942;47.894;11.424;2022-10-31T13:59:27;18.50;99.90
21563;DHT22;10942;47.894;11.424;2022-10-31T14:01:59;18.40;99.90
21563;DHT22;10942;47.894;11.424;2022-10-31T14:07:17;18.50;99.90
21563;DHT22;10942;47.894;11.424;2022-10-31T14:10:16;18.50;99.90
21563;DHT22;10942;47.894;11.424;2022-10-31T14:12:46;18.60;99.90
21563;DHT22;10942;47.894;11.424;2022-10-31T14:15:24;18.60;99.90
21563;DHT22;10942;47.894;11.424;2022-10-31T14:17:54;18.60;99.90
21563;DHT22;10942;47.894;11.424;2022-10-31T14:20:34;18.60;99.90
21563;DHT22;10942;47.894;11.424;2022-10-31T14:26:07;18.50;99.90
21563;DHT22;10942;47.894;11.424;2022-10-31T14:28:41;18.60;99.90
21563;DHT22;10942;47.894;11.424;2022-10-31T14:33:57;18.60;99.90
21563;DHT22;10942;47.894;11.424;2022-10-31T14:36:37;18.60;99.90
21563;DHT22;10942;47.894;11.424;2022-10-31T14:50:25;18.50;99.90
21563;DHT22;10942;47.894;11.424;2022-10-31T14:52:56;18.40;99.90
21563;DHT22;10942;47.894;11.424;2022-10-31T14:55:23;18.40;99.90
21563;DHT22;10942;47.894;11.424;2022-10-31T14:58:07;18.30;99.90
21563;DHT22;10942;47.894;11.424;2022-10-31T15:00:35;18.20;99.90
21563;DHT22;10942;47.894;11.424;2022-10-31T15:03:05;18.10;99.90
21563;DHT22;10942;47.894;11.424;2022-10-31T15:05:51;18.00;99.90
21563;DHT22;10942;47.894;11.424;2022-10-31T15:08:53;17.90;99.90
21563;DHT22;10942;47.894;11.424;2022-10-31T15:11:23;17.70;99.90
21563;DHT22;10942;47.894;11.424;2022-10-31T15:13:57;17.70;99.90
21563;DHT22;10942;47.894;11.424;2022-10-31T15:16:32;17.60;99.90
21563;DHT22;10942;47.894;11.424;2022-10-31T15:19:11;17.50;99.90
21563;DHT22;10942;47.894;11.424;2022-10-31T15:21:44;17.50;99.90
21563;DHT22;10942;47.894;11.424;2022-10-31T15:24:16;17.40;99.90
21563;DHT22;10942;47.894;11.424;2022-10-31T15:26:46;17.40;99.90
21563;DHT22;10942;47.894;11.424;2022-10-31T15:29:15;17.40;99.90
21563;DHT22;10942;47.894;11.424;2022-10-31T15:32:00;17.30;99.90
21563;DHT22;10942;47.894;11.424;2022-10-31T15:34:43;17.20;99.90
21563;DHT22;10942;47.894;11.424;2022-10-31T15:37:15;17.10;99.90
21563;DHT22;10942;47.894;11.424;2022-10-31T15:39:41;17.00;99.90
21563;DHT22;10942;47.894;11.424;2022-10-31T15:42:42;16.90;99.90
21563;DHT22;10942;47.894;11.424;2022-10-31T15:47:35;16.60;99.90
21563;DHT22;10942;47.894;11.424;2022-10-31T15:50:03;16.50;99.90
21563;DHT22;10942;47.894;11.424;2022-10-31T15:52:39;16.40;99.90
21563;DHT22;10942;47.894;11.424;2022-10-31T15:57:40;16.20;99.90
21563;DHT22;10942;47.894;11.424;2022-10-31T16:05:35;16.00;99.90
21563;DHT22;10942;47.894;11.424;2022-10-31T16:08:01;16.00;99.90
21563;DHT22;10942;47.894;11.424;2022-10-31T16:10:27;15.90;99.90
21563;DHT22;10942;47.894;11.424;2022-10-31T16:12:57;15.80;99.90
21563;DHT22;10942;47.894;11.424;2022-10-31T16:15:23;15.80;99.90
21563;DHT22;10942;47.894;11.424;2022-10-31T16:17:50;15.70;99.90
21563;DHT22;10942;47.894;11.424;2022-10-31T16:20:23;15.60;99.90
21563;DHT22;10942;47.894;11.424;2022-10-31T16:22:51;15.50;99.90
21563;DHT22;10942;47.894;11.424;2022-10-31T16:25:38;15.40;99.90
21563;DHT22;10942;47.894;11.424;2022-10-31T16:28:19;15.40;99.90
21563;DHT22;10942;47.894;11.424;2022-10-31T16:30:53;15.30;99.90
21563;DHT22;10942;47.894;11.424;2022-10-31T16:33:40;15.30;99.90
21563;DHT22;10942;47.894;11.424;2022-10-31T16:41:25;15.10;99.90
21563;DHT22;10942;47.894;11.424;2022-10-31T16:43:51;15.10;99.90
21563;DHT22;10942;47.894;11.424;2022-10-31T16:46:26;15.00;99.90
21563;DHT22;10942;47.894;11.424;2022-10-31T16:48:53;14.90;99.90
21563;DHT22;10942;47.894;11.424;2022-10-31T16:51:18;14.80;99.90
21563;DHT22;10942;47.894;11.424;2022-10-31T16:53:44;14.70;99.90
21563;DHT22;10942;47.894;11.424;2022-10-31T16:56:17;14.60;99.90
21563;DHT22;10942;47.894;11.424;2022-10-31T16:58:43;14.60;99.90
21563;DHT22;10942;47.894;11.424;2022-10-31T17:01:10;14.50;99.90
21563;DHT22;10942;47.894;11.424;2022-10-31T17:03:36;14.40;99.90
21563;DHT22;10942;47.894;11.424;2022-10-31T17:06:02;14.40;99.90
21563;DHT22;10942;47.894;11.424;2022-10-31T17:08:28;14.40;99.90
21563;DHT22;10942;47.894;11.424;2022-10-31T17:10:56;14.30;99.90
21563;DHT22;10942;47.894;11.424;2022-10-31T17:13:24;14.20;99.90
21563;DHT22;10942;47.894;11.424;2022-10-31T17:15:58;14.10;99.90
21563;DHT22;10942;47.894;11.424;2022-10-31T17:18:24;14.10;99.90
21563;DHT22;10942;47.894;11.424;2022-10-31T17:20:50;14.00;99.90
21563;DHT22;10942;47.894;11.424;2022-10-31T17:23:20;14.00;99.90
21563;DHT22;10942;47.894;11.424;2022-10-31T17:25:45;13.90;99.90
21563;DHT22;10942;47.894;11.424;2022-10-31T17:28:12;13.90;99.90
21563;DHT22;10942;47.894;11.424;2022-10-31T17:30:42;13.70;99.90
21563;DHT22;10942;47.894;11.424;2022-10-31T17:33:15;13.70;99.90
21563;DHT22;10942;47.894;11.424;2022-10-31T17:35:42;13.60;99.90
21563;DHT22;10942;47.894;11.424;2022-10-31T17:38:09;13.50;99.90
21563;DHT22;10942;47.894;11.424;2022-10-31T17:40:37;13.40;99.90
21563;DHT22;10942;47.894;11.424;2022-10-31T17:43:04;13.40;99.90
21563;DHT22;10942;47.894;11.424;2022-10-31T17:45:30;13.30;99.90
21563;DHT22;10942;47.894;11.424;2022-10-31T17:47:55;13.20;99.90
21563;DHT22;10942;47.894;11.424;2022-10-31T17:50:25;13.20;99.90
21563;DHT22;10942;47.894;11.424;2022-10-31T17:52:51;13.20;99.90
21563;DHT22;10942;47.894;11.424;2022-10-31T17:55:17;13.10;99.90
21563;DHT22;10942;47.894;11.424;2022-10-31T17:57:43;13.00;99.90
21563;DHT22;10942;47.894;11.424;2022-10-31T18:00:15;13.00;99.90
21563;DHT22;10942;47.894;11.424;2022-10-31T18:02:41;12.90;99.90
21563;DHT22;10942;47.894;11.424;2022-10-31T18:05:07;12.90;99.90
21563;DHT22;10942;47.894;11.424;2022-10-31T18:07:33;12.80;99.90
21563;DHT22;10942;47.894;11.424;2022-10-31T18:09:59;12.70;99.90
21563;DHT22;10942;47.894;11.424;2022-10-31T18:12:25;12.70;99.90
21563;DHT22;10942;47.894;11.424;2022-10-31T18:14:52;12.70;99.90
21563;DHT22;10942;47.894;11.424;2022-10-31T18:17:18;12.60;99.90
21563;DHT22;10942;47.894;11.424;2022-10-31T18:19:44;12.60;99.90
21563;DHT22;10942;47.894;11.424;2022-10-31T18:22:10;12.50;99.90
21563;DHT22;10942;47.894;11.424;2022-10-31T18:24:36;12.50;99.90
21563;DHT22;10942;47.894;11.424;2022-10-31T18:27:02;12.40;99.90
21563;DHT22;10942;47.894;11.424;2022-10-31T18:29:28;12.40;99.90
21563;DHT22;10942;47.894;11.424;2022-10-31T18:31:54;12.40;99.90
21563;DHT22;10942;47.894;11.424;2022-10-31T18:34:20;12.30;99.90
21563;DHT22;10942;47.894;11.424;2022-10-31T18:36:45;12.30;99.90
21563;DHT22;10942;47.894;11.424;2022-10-31T18:39:11;12.20;99.90
21563;DHT22;10942;47.894;11.424;2022-10-31T18:41:38;12.20;99.90
21563;DHT22;10942;47.894;11.424;2022-10-31T18:44:05;12.20;99.90
21563;DHT22;10942;47.894;11.424;2022-10-31T18:46:30;12.10;99.90
21563;DHT22;10942;47.894;11.424;2022-10-31T18:48:56;12.00;99.90
21563;DHT22;10942;47.894;11.424;2022-10-31T18:51:22;12.00;99.90
21563;DHT22;10942;47.894;11.424;2022-10-31T18:53:56;11.90;99.90